Berwick, Ohio
Current Conditions -  °F | °C
As of 8:53 PM on Saturday 20 Dec 2014 (Local Time) from KFDY Reporting Station
Overcast Overcast  
Wind Chill: 25°   Ceiling: 3000
Heat Index: 30°   Visibility: 7mi
Dew Point: 25°   Wind: 5mph
Humidity: 82%   Direction: 170°S
Pressure: 30.28"   Gusts: NA
Location:  41.0558°N, 83.3049°W
Report Text: KFDY 210153Z AUTO 17004KT 7SM BKN030 OVC085 M01/M04 A3028 RMK AO2 SLP259 T10111039
Loading
Personal Weather Stations






























Interactive Weather Map New forecast layout! Learn more

10-Day Weather Forecast

Advertisements
Track Severe Weather on mobile